Cobourg, Canada
Current Conditions -  °F | °C
As of 5:00 AM on Friday 31 Oct 2014 (Local Time) from CYPQ Reporting Station
Light Rain Light Rain  
Wind Chill: 37°   Ceiling: 2500
Heat Index: 37°   Visibility: 9mi
Dew Point: 37°   Wind: 0mph
Humidity: 100%   Direction: NA
Pressure: 29.98"   Gusts: NA
Location:  43.96°N, 78.17°W
Report Text: CYPQ 310900Z AUTO 00000KT 9SM -RA BKN025 OVC060 03/03 A2998 RMK SLP158
Loading
Personal Weather Stations






























Interactive Weather Map
Tropical Storm Tracking
New forecast layout! Learn more

10-Day Weather Forecast

Advertisements
Track Severe Weather on mobile